createdAt,value
2018-01-11T00:00:53.486Z,-6.34
2018-01-11T00:02:03.462Z,-6.34
2018-01-11T00:03:13.235Z,-6.34
2018-01-11T00:04:23.212Z,-6.3
2018-01-11T00:05:33.190Z,-6.3
2018-01-11T00:06:42.899Z,-6.26
2018-01-11T00:07:52.883Z,-6.28
2018-01-11T00:09:02.856Z,-6.27
2018-01-11T00:10:12.837Z,-6.16
2018-01-11T00:11:22.828Z,-6.26
2018-01-11T00:12:32.811Z,-6.24
2018-01-11T00:13:42.792Z,-6.24
2018-01-11T00:14:52.766Z,-6.26
2018-01-11T00:16:02.750Z,-6.2
2018-01-11T00:17:12.471Z,-6.21
2018-01-11T00:18:22.240Z,-6.16
2018-01-11T00:19:31.958Z,-6.09
2018-01-11T00:20:41.673Z,-6.09
2018-01-11T00:21:51.393Z,-6.06
2018-01-11T00:23:01.372Z,-6
2018-01-11T00:24:11.353Z,-5.97
2018-01-11T00:25:21.072Z,-5.94
2018-01-11T00:26:30.793Z,-5.91
2018-01-11T00:27:40.315Z,-5.91
2018-01-11T00:28:50.297Z,-5.89
2018-01-11T00:30:00.031Z,-5.81
2018-01-11T00:31:09.757Z,-5.89
2018-01-11T00:32:19.733Z,-5.89
2018-01-11T00:33:29.713Z,-5.95
2018-01-11T00:34:39.428Z,-5.89
2018-01-11T00:35:49.410Z,-5.97
2018-01-11T00:36:59.435Z,-5.97
2018-01-11T00:38:09.413Z,-5.97
2018-01-11T00:39:19.129Z,-5.99
2018-01-11T00:40:29.109Z,-5.94
2018-01-11T00:41:38.818Z,-5.99
2018-01-11T00:42:48.844Z,-5.89
2018-01-11T00:43:58.555Z,-5.94
2018-01-11T00:45:08.269Z,-5.91
2018-01-11T00:46:18.246Z,-5.87
2018-01-11T00:47:28.223Z,-5.91
2018-01-11T00:48:37.933Z,-5.78
2018-01-11T00:49:47.640Z,-5.81
2018-01-11T00:50:57.618Z,-5.85
2018-01-11T00:52:07.074Z,-5.84
2018-01-11T00:53:16.785Z,-5.84
2018-01-11T00:54:26.761Z,-5.85
2018-01-11T00:55:36.204Z,-5.76
2018-01-11T00:56:45.919Z,-5.68
2018-01-11T00:57:55.638Z,-5.71
2018-01-11T00:59:05.669Z,-5.66
2018-01-11T01:00:15.650Z,-5.81
2018-01-11T01:01:25.678Z,-5.77
2018-01-11T01:02:35.655Z,-5.82
2018-01-11T01:03:45.630Z,-5.74
2018-01-11T01:04:55.350Z,-5.6
2018-01-11T01:06:05.333Z,-5.68
2018-01-11T01:07:14.780Z,-5.78
2018-01-11T01:08:24.756Z,-5.84
2018-01-11T01:09:34.472Z,-5.78
2018-01-11T01:10:44.448Z,-5.76
2018-01-11T01:11:54.426Z,-5.81
2018-01-11T01:13:04.410Z,-5.81
2018-01-11T01:14:14.129Z,-5.78
2018-01-11T01:15:24.111Z,-5.84
2018-01-11T01:16:34.091Z,-5.87
2018-01-11T01:17:44.172Z,-5.77
2018-01-11T01:18:54.160Z,-5.87
2018-01-11T01:20:04.141Z,-5.85
2018-01-11T01:21:13.859Z,-5.91
2018-01-11T01:22:23.839Z,-5.89
2018-01-11T01:23:33.866Z,-5.88
2018-01-11T01:24:43.595Z,-5.78
2018-01-11T01:25:53.567Z,-5.85
2018-01-11T01:27:03.552Z,-5.78
2018-01-11T01:28:12.996Z,-5.88
2018-01-11T01:29:22.973Z,-5.77
2018-01-11T01:30:32.954Z,-5.84
2018-01-11T01:31:42.665Z,-5.84
2018-01-11T01:32:52.379Z,-5.78
2018-01-11T01:34:02.093Z,-5.84
2018-01-11T01:35:11.819Z,-5.82
2018-01-11T01:36:21.800Z,-5.68
2018-01-11T01:37:31.786Z,-5.81
2018-01-11T01:38:41.235Z,-5.7
2018-01-11T01:39:51.217Z,-5.66
2018-01-11T01:41:01.234Z,-5.66
2018-01-11T01:42:11.213Z,-5.63
2018-01-11T01:43:21.193Z,-5.7
2018-01-11T01:44:30.904Z,-5.77
2018-01-11T01:45:40.887Z,-5.74
2018-01-11T01:46:50.599Z,-5.73
2018-01-11T01:48:00.580Z,-5.71
2018-01-11T01:49:10.574Z,-5.71
2018-01-11T01:50:20.559Z,-5.81
2018-01-11T01:51:30.542Z,-5.74
2018-01-11T01:52:40.358Z,-5.67
2018-01-11T01:53:50.071Z,-5.68
2018-01-11T01:55:00.063Z,-5.6
2018-01-11T01:56:10.075Z,-5.59
2018-01-11T01:57:20.056Z,-5.5
2018-01-11T01:58:30.037Z,-5.6
2018-01-11T01:59:40.020Z,-5.49
2018-01-11T02:00:49.996Z,-5.5
2018-01-11T02:01:59.972Z,-5.45
2018-01-11T02:03:09.694Z,-5.5
2018-01-11T02:04:19.671Z,-5.5
2018-01-11T02:05:29.385Z,-5.49
2018-01-11T02:06:39.103Z,-5.39
2018-01-11T02:07:48.875Z,-5.38
2018-01-11T02:08:58.862Z,-5.41
2018-01-11T02:10:08.905Z,-5.23
2018-01-11T02:11:18.622Z,-5.27
2018-01-11T02:12:28.595Z,-5.27
2018-01-11T02:13:38.574Z,-5.25
2018-01-11T02:14:48.554Z,-5.27
2018-01-11T02:15:58.582Z,-5.27
2018-01-11T02:17:08.312Z,-5.28
2018-01-11T02:18:18.288Z,-5.19
2018-01-11T02:19:28.265Z,-5.19
2018-01-11T02:20:38.243Z,-5.06
2018-01-11T02:21:48.224Z,-5.1
2018-01-11T02:22:57.933Z,-5
2018-01-11T02:24:07.651Z,-5.06
2018-01-11T02:25:17.629Z,-5.12
2018-01-11T02:26:27.606Z,-5.12
2018-01-11T02:27:37.586Z,-5.02
2018-01-11T02:28:47.562Z,-5
2018-01-11T02:29:57.535Z,-5
2018-01-11T02:31:07.254Z,-5.01
2018-01-11T02:32:17.247Z,-4.92
2018-01-11T02:33:27.223Z,-4.91
2018-01-11T02:34:36.954Z,-4.9
2018-01-11T02:35:46.680Z,-4.94
2018-01-11T02:36:56.672Z,-4.92
2018-01-11T02:38:06.390Z,-4.9
2018-01-11T02:39:16.122Z,-4.98
2018-01-11T02:40:26.111Z,-5.09
2018-01-11T02:41:35.836Z,-5.06
2018-01-11T02:42:45.815Z,-5.05
2018-01-11T02:43:55.796Z,-5.13
2018-01-11T02:45:05.793Z,-5.2
2018-01-11T02:46:15.510Z,-5.25
2018-01-11T02:47:25.230Z,-5.19
2018-01-11T02:48:35.218Z,-5.23
2018-01-11T02:49:45.194Z,-5.28
2018-01-11T02:50:55.178Z,-5.28
2018-01-11T02:52:05.163Z,-5.27
2018-01-11T02:53:14.880Z,-5.2
2018-01-11T02:54:24.597Z,-5.17
2018-01-11T02:55:34.318Z,-5.19
2018-01-11T02:56:44.301Z,-5.13
2018-01-11T02:57:54.294Z,-5.13
2018-01-11T02:59:04.288Z,-5.13
2018-01-11T03:00:14.271Z,-5.1
2018-01-11T03:01:24.257Z,-5.12
2018-01-11T03:02:34.245Z,-5.06
2018-01-11T03:03:44.219Z,-5.09
2018-01-11T03:04:54.206Z,-4.97
2018-01-11T03:06:04.189Z,-4.97
2018-01-11T03:07:14.170Z,-4.9
2018-01-11T03:08:24.148Z,-4.97
2018-01-11T03:09:34.129Z,-4.95
2018-01-11T03:10:43.844Z,-4.92
2018-01-11T03:11:53.290Z,-4.83
2018-01-11T03:13:03.279Z,-4.81
2018-01-11T03:14:13.308Z,-4.87
2018-01-11T03:15:23.291Z,-4.81
2018-01-11T03:16:33.016Z,-4.67
2018-01-11T03:17:42.472Z,-4.79
2018-01-11T03:18:52.195Z,-4.58
2018-01-11T03:20:02.223Z,-4.63
2018-01-11T03:21:12.211Z,-4.59
2018-01-11T03:22:21.925Z,-4.58
2018-01-11T03:23:31.900Z,-4.53
2018-01-11T03:24:41.879Z,-4.58
2018-01-11T03:25:51.855Z,-4.56
2018-01-11T03:27:01.571Z,-4.55
2018-01-11T03:28:11.581Z,-4.61
2018-01-11T03:29:21.558Z,-4.61
2018-01-11T03:30:31.019Z,-4.51
2018-01-11T03:31:41.018Z,-4.41
2018-01-11T03:32:51.046Z,-4.38
2018-01-11T03:34:01.027Z,-4.4
2018-01-11T03:35:10.482Z,-4.44
2018-01-11T03:36:20.475Z,-4.4
2018-01-11T03:37:30.460Z,-4.4
2018-01-11T03:38:40.174Z,-4.37
2018-01-11T03:39:50.159Z,-4.35
2018-01-11T03:40:59.874Z,-4.27
2018-01-11T03:42:09.588Z,-4.3
2018-01-11T03:43:19.304Z,-4.27
2018-01-11T03:44:29.015Z,-4.24
2018-01-11T03:45:38.995Z,-4.31
2018-01-11T03:46:48.712Z,-4.31
2018-01-11T03:47:58.691Z,-4.33
2018-01-11T03:49:08.673Z,-4.33
2018-01-11T03:50:18.652Z,-4.33
2018-01-11T03:51:28.637Z,-4.22
2018-01-11T03:52:38.614Z,-4.26
2018-01-11T03:53:48.592Z,-4.33
2018-01-11T03:54:58.575Z,-4.37
2018-01-11T03:56:08.290Z,-4.4
2018-01-11T03:57:18.008Z,-4.38
2018-01-11T03:58:27.990Z,-4.41
2018-01-11T03:59:37.195Z,-4.3
2018-01-11T04:03:31.327Z,-4.33
2018-01-11T04:04:41.043Z,-4.23
2018-01-11T04:05:51.021Z,-4.3
2018-01-11T04:07:00.472Z,-4.27
2018-01-11T04:08:09.928Z,-4.16
2018-01-11T04:09:19.921Z,-4.22
2018-01-11T04:10:29.375Z,-4.16
2018-01-11T04:11:39.087Z,-4.24
2018-01-11T04:12:49.065Z,-4.14
2018-01-11T04:13:59.113Z,-4.16
2018-01-11T04:15:08.832Z,-4.2
2018-01-11T04:16:18.817Z,-4.19
2018-01-11T04:17:28.804Z,-4.19
2018-01-11T04:18:38.789Z,-4.17
2018-01-11T04:19:48.849Z,-4.19
2018-01-11T04:20:58.827Z,-4.06
2018-01-11T04:22:08.811Z,-4.04
2018-01-11T04:23:18.789Z,-4.05
2018-01-11T04:24:28.769Z,-4.02
2018-01-11T04:25:38.747Z,-4.06
2018-01-11T04:26:48.728Z,-4.2
2018-01-11T04:27:58.441Z,-4.17
2018-01-11T04:29:08.432Z,-4.22
2018-01-11T04:30:18.415Z,-4.09
2018-01-11T04:31:28.129Z,-4.04
2018-01-11T04:32:38.111Z,-4.12
2018-01-11T04:33:48.091Z,-4.04
2018-01-11T04:34:57.808Z,-4.06
2018-01-11T04:36:07.532Z,-4.05
2018-01-11T04:37:17.531Z,-4.09
2018-01-11T04:38:27.512Z,-4.06
2018-01-11T04:39:37.223Z,-4.09
2018-01-11T04:40:46.935Z,-4.08
2018-01-11T04:41:56.917Z,-4.08
2018-01-11T04:43:06.899Z,-4.13
2018-01-11T04:44:16.879Z,-4.2
2018-01-11T04:45:26.879Z,-4.34
2018-01-11T04:46:36.600Z,-4.44
2018-01-11T04:47:46.574Z,-4.47
2018-01-11T04:48:56.289Z,-4.41
2018-01-11T04:50:06.270Z,-4.61
2018-01-11T04:51:16.259Z,-4.51
2018-01-11T04:52:26.251Z,-4.49
2018-01-11T04:53:36.285Z,-4.49
2018-01-11T04:54:46.262Z,-4.44
2018-01-11T04:55:56.082Z,-4.44
2018-01-11T04:57:06.067Z,-4.51
2018-01-11T04:58:15.784Z,-4.55
2018-01-11T04:59:25.769Z,-4.52
2018-01-11T05:00:35.556Z,-4.51
2018-01-11T05:01:45.269Z,-4.59
2018-01-11T05:02:55.247Z,-4.52
2018-01-11T05:04:04.959Z,-4.56
2018-01-11T05:05:14.960Z,-4.59
2018-01-11T05:06:24.940Z,-4.61
2018-01-11T05:07:34.968Z,-4.65
2018-01-11T05:08:44.952Z,-4.55
2018-01-11T05:09:54.930Z,-4.53
2018-01-11T05:11:04.906Z,-4.56
2018-01-11T05:12:14.888Z,-4.52
2018-01-11T05:13:24.989Z,-4.53
2018-01-11T05:14:34.978Z,-4.59
2018-01-11T05:15:44.963Z,-4.58
2018-01-11T05:16:54.941Z,-4.51
2018-01-11T05:18:04.932Z,-4.52
2018-01-11T05:19:14.644Z,-4.55
2018-01-11T05:20:24.628Z,-4.51
2018-01-11T05:21:34.346Z,-4.56
2018-01-11T05:22:44.062Z,-4.56
2018-01-11T05:23:54.050Z,-4.55
2018-01-11T05:25:04.139Z,-4.56
2018-01-11T05:26:13.855Z,-4.53
2018-01-11T05:27:23.833Z,-4.55
2018-01-11T05:28:33.567Z,-4.56
2018-01-11T05:29:43.575Z,-4.58
2018-01-11T05:30:53.572Z,-4.58
2018-01-11T05:32:03.558Z,-4.59
2018-01-11T05:33:13.547Z,-4.58
2018-01-11T05:34:23.257Z,-4.55
2018-01-11T05:35:33.239Z,-4.61
2018-01-11T05:36:43.226Z,-4.59
2018-01-11T05:37:53.205Z,-4.61
2018-01-11T05:39:03.187Z,-4.56
2018-01-11T05:40:12.376Z,-4.58
2018-01-11T05:41:22.354Z,-4.59
2018-01-11T05:42:32.336Z,-4.58
2018-01-11T05:43:42.313Z,-4.58
2018-01-11T05:44:52.302Z,-4.52
2018-01-11T05:46:02.281Z,-4.41
2018-01-11T05:47:12.262Z,-4.51
2018-01-11T05:48:21.981Z,-4.52
2018-01-11T05:49:31.965Z,-4.45
2018-01-11T05:50:41.680Z,-4.44
2018-01-11T05:51:51.659Z,-4.38
2018-01-11T05:53:01.637Z,-4.47
2018-01-11T05:54:11.352Z,-4.44
2018-01-11T05:55:21.068Z,-4.44
2018-01-11T05:56:31.054Z,-4.41
2018-01-11T05:57:40.509Z,-4.37
2018-01-11T05:58:50.489Z,-4.31
2018-01-11T06:00:00.209Z,-4.24
2018-01-11T06:01:09.938Z,-4.31
2018-01-11T06:02:19.923Z,-4.34
2018-01-11T06:03:30.111Z,-4.31
2018-01-11T06:04:40.106Z,-4.31
2018-01-11T06:05:50.154Z,-4.2
2018-01-11T06:06:59.873Z,-4.23
2018-01-11T06:08:09.856Z,-4.31
2018-01-11T06:09:19.042Z,-4.2
2018-01-11T06:10:29.028Z,-4.2
2018-01-11T06:11:39.008Z,-4.22
2018-01-11T06:12:48.730Z,-4.14
2018-01-11T06:13:58.711Z,-4.24
2018-01-11T06:15:07.896Z,-4.14
2018-01-11T06:16:17.884Z,-4.14
2018-01-11T06:17:27.912Z,-4.16
2018-01-11T06:18:37.894Z,-4.13
2018-01-11T06:19:47.610Z,-4.13
2018-01-11T06:20:57.596Z,-4.19
2018-01-11T06:22:07.584Z,-4.2
2018-01-11T06:23:17.309Z,-4.2
2018-01-11T06:24:27.292Z,-4.12
2018-01-11T06:25:37.019Z,-4.12
2018-01-11T06:26:47.004Z,-4.04
2018-01-11T06:27:56.745Z,-3.99
2018-01-11T06:29:06.751Z,-4.05
2018-01-11T06:30:16.736Z,-4.02
2018-01-11T06:31:26.720Z,-4.05
2018-01-11T06:32:36.435Z,-3.98
2018-01-11T06:33:46.421Z,-3.95
2018-01-11T06:34:56.461Z,-3.9
2018-01-11T06:36:06.443Z,-3.96
2018-01-11T06:37:16.428Z,-3.99
2018-01-11T06:38:26.143Z,-3.87
2018-01-11T06:39:36.128Z,-3.88
2018-01-11T06:40:46.109Z,-3.94
2018-01-11T06:41:56.089Z,-3.91
2018-01-11T06:43:06.073Z,-3.87
2018-01-11T06:44:16.055Z,-3.88
2018-01-11T06:45:26.038Z,-3.88
2018-01-11T06:46:36.020Z,-3.85
2018-01-11T06:47:46.000Z,-3.94
2018-01-11T06:48:55.978Z,-3.91
2018-01-11T06:50:05.691Z,-3.81
2018-01-11T06:51:15.143Z,-3.88
2018-01-11T06:52:25.125Z,-3.85
2018-01-11T06:53:34.573Z,-3.91
2018-01-11T06:54:44.572Z,-3.91
2018-01-11T06:55:54.288Z,-4.05
2018-01-11T06:57:04.267Z,-4.02
2018-01-11T06:58:13.983Z,-4.02
2018-01-11T06:59:23.968Z,-3.88
2018-01-11T07:00:33.949Z,-3.98
2018-01-11T07:01:43.669Z,-4.06
2018-01-11T07:02:53.666Z,-3.84
2018-01-11T07:04:03.654Z,-3.8
2018-01-11T07:05:13.644Z,-3.83
2018-01-11T07:06:23.625Z,-3.81
2018-01-11T07:07:33.344Z,-3.88
2018-01-11T07:08:43.327Z,-3.87
2018-01-11T07:09:53.310Z,-3.88
2018-01-11T07:11:03.313Z,-3.98
2018-01-11T07:12:13.295Z,-4.06
2018-01-11T07:13:23.012Z,-4.05
2018-01-11T07:14:33.007Z,-4.17
2018-01-11T07:15:42.720Z,-4.17
2018-01-11T07:16:52.704Z,-4.04
2018-01-11T07:18:02.685Z,-4.2
2018-01-11T07:19:12.667Z,-4.17
2018-01-11T07:20:22.383Z,-4.26
2018-01-11T07:21:32.373Z,-4.24
2018-01-11T07:22:42.090Z,-4.22
2018-01-11T07:23:51.813Z,-4.24
2018-01-11T07:25:01.527Z,-4.26
2018-01-11T07:26:10.719Z,-4.13
2018-01-11T07:27:20.695Z,-4.13
2018-01-11T07:28:30.411Z,-4.17
2018-01-11T07:29:40.135Z,-4.2
2018-01-11T07:30:50.117Z,-4.22
2018-01-11T07:32:00.094Z,-4.17
2018-01-11T07:33:10.074Z,-4.2
2018-01-11T07:34:19.882Z,-4.2
2018-01-11T07:35:29.597Z,-4.19
2018-01-11T07:36:39.314Z,-4.31
2018-01-11T07:37:49.314Z,-4.23
2018-01-11T07:38:59.296Z,-4.22
2018-01-11T07:40:09.028Z,-4.16
2018-01-11T07:41:18.746Z,-4.19
2018-01-11T07:42:28.726Z,-4.2
2018-01-11T07:43:38.452Z,-4.14
2018-01-11T07:44:48.430Z,-4.19
2018-01-11T07:45:58.412Z,-4.13
2018-01-11T07:47:08.220Z,-4.02
2018-01-11T07:48:18.201Z,-4.06
2018-01-11T07:49:28.185Z,-4.02
2018-01-11T07:50:38.016Z,-3.96
2018-01-11T07:51:47.747Z,-4.05
2018-01-11T07:52:57.728Z,-4.02
2018-01-11T07:54:07.711Z,-3.94
2018-01-11T07:55:17.433Z,-3.88
2018-01-11T07:56:27.206Z,-3.91
2018-01-11T07:57:37.187Z,-3.94
2018-01-11T07:58:47.166Z,-3.81
2018-01-11T07:59:57.162Z,-3.71
2018-01-11T08:01:07.141Z,-3.84
2018-01-11T08:02:17.126Z,-3.71
2018-01-11T08:03:26.854Z,-3.71
2018-01-11T08:04:36.569Z,-3.68
2018-01-11T08:05:46.293Z,-3.66
2018-01-11T08:06:56.279Z,-3.64
2018-01-11T08:08:06.260Z,-3.68
2018-01-11T08:09:15.980Z,-3.64
2018-01-11T08:10:25.961Z,-3.59
2018-01-11T08:11:35.948Z,-3.69
2018-01-11T08:12:45.696Z,-3.68
2018-01-11T08:13:55.732Z,-3.66
2018-01-11T08:15:05.719Z,-3.74
2018-01-11T08:16:15.742Z,-3.75
2018-01-11T08:17:25.719Z,-3.71
2018-01-11T08:18:35.440Z,-3.78
2018-01-11T08:19:45.420Z,-3.8
2018-01-11T08:20:55.136Z,-3.77
2018-01-11T08:22:05.117Z,-3.75
2018-01-11T08:23:14.836Z,-3.77
2018-01-11T08:24:24.830Z,-3.75
2018-01-11T08:25:34.820Z,-3.74
2018-01-11T08:26:44.809Z,-3.71
2018-01-11T08:27:54.524Z,-3.8
2018-01-11T08:29:04.507Z,-3.69
2018-01-11T08:30:14.492Z,-3.71
2018-01-11T08:31:24.532Z,-3.71
2018-01-11T08:32:34.251Z,-3.68
2018-01-11T08:33:44.230Z,-3.74
2018-01-11T08:34:54.208Z,-3.69
2018-01-11T08:36:04.191Z,-3.66
2018-01-11T08:37:13.924Z,-3.74
2018-01-11T08:38:23.906Z,-3.69
2018-01-11T08:39:33.892Z,-3.75
2018-01-11T08:40:43.609Z,-3.77
2018-01-11T08:41:53.596Z,-3.75
2018-01-11T08:43:03.314Z,-3.74
2018-01-11T08:44:13.031Z,-3.77
2018-01-11T08:45:23.014Z,-3.75
2018-01-11T08:46:32.994Z,-3.69
2018-01-11T08:47:42.713Z,-3.64
2018-01-11T08:48:52.755Z,-3.56
2018-01-11T08:50:02.491Z,-3.58
2018-01-11T08:51:12.210Z,-3.47
2018-01-11T08:52:21.927Z,-3.48
2018-01-11T08:53:31.913Z,-3.38
2018-01-11T08:54:41.699Z,-3.4
2018-01-11T08:55:51.681Z,-3.47
2018-01-11T08:57:01.673Z,-3.48
2018-01-11T08:58:11.662Z,-3.56
2018-01-11T08:59:21.380Z,-3.58
2018-01-11T09:00:30.933Z,-3.61
2018-01-11T09:01:40.914Z,-3.58
2018-01-11T09:02:50.899Z,-3.58
2018-01-11T09:04:00.877Z,-3.58
2018-01-11T09:05:10.606Z,-3.46
2018-01-11T09:06:20.690Z,-3.55
2018-01-11T09:07:30.417Z,-3.48
2018-01-11T09:08:39.866Z,-3.53
2018-01-11T09:09:49.849Z,-3.53
2018-01-11T09:10:59.834Z,-3.47
2018-01-11T09:12:09.817Z,-3.47
2018-01-11T09:13:19.799Z,-3.36
2018-01-11T09:14:29.254Z,-3.41
2018-01-11T09:15:38.970Z,-3.37
2018-01-11T09:16:48.686Z,-3.37
2018-01-11T09:17:58.714Z,-3.44
2018-01-11T09:19:08.707Z,-3.46
2018-01-11T09:20:18.693Z,-3.44
2018-01-11T09:21:28.710Z,-3.4
2018-01-11T09:22:38.169Z,-3.38
2018-01-11T09:23:48.190Z,-3.43
2018-01-11T09:24:58.172Z,-3.36
2018-01-11T09:26:07.685Z,-3.36
2018-01-11T09:27:17.835Z,-3.29
2018-01-11T09:28:27.920Z,-3.2
2018-01-11T09:29:38.099Z,-3.2
2018-01-11T09:30:48.095Z,-3.2
2018-01-11T09:31:58.134Z,-3.12
2018-01-11T09:33:08.305Z,-3.08
2018-01-11T09:34:18.729Z,-3.11
2018-01-11T09:35:28.715Z,-3.09
2018-01-11T09:36:38.735Z,-3.04
2018-01-11T09:37:48.717Z,-3.01
2018-01-11T09:38:58.703Z,-2.96
2018-01-11T09:40:08.420Z,-3.01
2018-01-11T09:41:18.134Z,-2.91
2018-01-11T09:42:27.889Z,-2.89
2018-01-11T09:43:37.901Z,-2.86
2018-01-11T09:44:47.882Z,-2.89
2018-01-11T09:45:57.862Z,-2.78
2018-01-11T09:47:07.846Z,-2.73
2018-01-11T09:48:17.835Z,-2.68
2018-01-11T09:49:27.839Z,-2.72
2018-01-11T09:50:37.289Z,-2.7
2018-01-11T09:51:47.275Z,-2.62
2018-01-11T09:52:57.303Z,-2.7
2018-01-11T09:54:07.289Z,-2.66
2018-01-11T09:55:17.274Z,-2.69
2018-01-11T09:56:27.260Z,-2.8
2018-01-11T09:57:37.246Z,-2.73
2018-01-11T09:58:47.022Z,-2.65
2018-01-11T09:59:57.005Z,-2.66
2018-01-11T10:01:06.994Z,-2.62
2018-01-11T10:02:16.992Z,-2.57
2018-01-11T10:03:26.979Z,-2.58
2018-01-11T10:04:36.707Z,-2.68
2018-01-11T10:05:46.693Z,-2.61
2018-01-11T10:06:56.408Z,-2.61
2018-01-11T10:08:06.387Z,-2.62
2018-01-11T10:09:16.104Z,-2.76
2018-01-11T10:10:25.881Z,-2.78
2018-01-11T10:11:35.332Z,-2.8
2018-01-11T10:12:45.054Z,-2.75
2018-01-11T10:13:54.777Z,-2.76
2018-01-11T10:15:04.768Z,-2.84
2018-01-11T10:16:14.556Z,-2.89
2018-01-11T10:17:24.285Z,-2.93
2018-01-11T10:18:34.359Z,-2.96
2018-01-11T10:19:44.354Z,-2.98
2018-01-11T10:20:54.077Z,-2.91
2018-01-11T10:22:03.869Z,-2.89
2018-01-11T10:23:13.866Z,-2.86
2018-01-11T10:24:23.852Z,-2.99
2018-01-11T10:25:33.591Z,-2.96
2018-01-11T10:26:43.575Z,-2.93
2018-01-11T10:27:53.560Z,-2.93
2018-01-11T10:29:03.546Z,-2.91
2018-01-11T10:30:13.262Z,-2.86
2018-01-11T10:31:22.988Z,-2.89
2018-01-11T10:32:32.706Z,-2.86
2018-01-11T10:33:42.742Z,-2.98
2018-01-11T10:34:52.458Z,-2.93
2018-01-11T10:36:02.454Z,-2.93
2018-01-11T10:37:12.443Z,-3.01
2018-01-11T10:38:22.428Z,-2.96
2018-01-11T10:39:32.412Z,-2.98
2018-01-11T10:40:41.601Z,-2.91
2018-01-11T10:41:51.325Z,-2.89
2018-01-11T10:43:01.047Z,-2.76
2018-01-11T10:44:10.795Z,-2.66
2018-01-11T10:45:20.781Z,-2.72
2018-01-11T10:46:30.770Z,-2.73
2018-01-11T10:47:40.804Z,-2.61
2018-01-11T10:48:50.795Z,-2.62
2018-01-11T10:50:00.514Z,-2.58
2018-01-11T10:51:10.507Z,-2.54
2018-01-11T10:52:20.495Z,-2.58
2018-01-11T10:53:30.482Z,-2.57
2018-01-11T10:54:40.471Z,-2.42
2018-01-11T10:55:49.926Z,-2.4
2018-01-11T10:57:00.032Z,-2.44
2018-01-11T10:58:10.076Z,-2.44
2018-01-11T10:59:20.055Z,-2.34
2018-01-11T11:00:30.037Z,-2.45
2018-01-11T11:01:39.757Z,-2.32
2018-01-11T11:02:49.747Z,-2.28
2018-01-11T11:03:59.738Z,-2.22
2018-01-11T11:05:09.461Z,-2.48
2018-01-11T11:06:19.178Z,-2.37
2018-01-11T11:07:28.898Z,-2.34
2018-01-11T11:08:38.882Z,-2.36
2018-01-11T11:09:48.871Z,-2.28
2018-01-11T11:10:58.850Z,-2.15
2018-01-11T11:12:08.572Z,-2.23
2018-01-11T11:13:18.569Z,-2.18
2018-01-11T11:14:28.553Z,-2.2
2018-01-11T11:15:38.274Z,-2.1
2018-01-11T11:16:47.989Z,-1.97
2018-01-11T11:17:57.968Z,-2
2018-01-11T11:19:07.953Z,-2.02
2018-01-11T11:20:19.272Z,-2
2018-01-11T11:21:28.725Z,-2
2018-01-11T11:22:38.708Z,-2.02
2018-01-11T11:23:48.430Z,-1.97
2018-01-11T11:24:58.424Z,-2.02
2018-01-11T11:26:08.144Z,-1.97
2018-01-11T11:27:18.127Z,-1.92
2018-01-11T11:28:27.616Z,-1.94
2018-01-11T11:29:37.343Z,-1.92
2018-01-11T11:30:47.365Z,-1.82
2018-01-11T11:31:57.091Z,-1.84
2018-01-11T11:33:07.083Z,-1.9
2018-01-11T11:34:16.807Z,-2
2018-01-11T11:35:26.793Z,-2.13
2018-01-11T11:36:36.512Z,-2.14
2018-01-11T11:37:46.546Z,-2.11
2018-01-11T11:38:56.537Z,-2.13
2018-01-11T11:40:06.525Z,-2.08
2018-01-11T11:41:16.514Z,-2.14
2018-01-11T11:42:26.246Z,-2.04
2018-01-11T11:43:36.339Z,-2.1
2018-01-11T11:44:46.324Z,-1.99
2018-01-11T11:45:55.785Z,-2
2018-01-11T11:47:05.506Z,-1.92
2018-01-11T11:48:15.498Z,-1.87
2018-01-11T11:49:25.489Z,-1.96
2018-01-11T11:50:35.207Z,-2.14
2018-01-11T11:51:44.936Z,-2.2
2018-01-11T11:52:54.925Z,-2.15
2018-01-11T11:54:04.910Z,-2.1
2018-01-11T11:55:14.904Z,-1.97
2018-01-11T11:56:24.896Z,-1.94
2018-01-11T11:57:34.626Z,-1.87
2018-01-11T11:58:44.347Z,-1.9
2018-01-11T11:59:54.329Z,-1.79
2018-01-11T12:01:04.369Z,-1.75
2018-01-11T12:02:14.353Z,-1.81
2018-01-11T12:03:24.346Z,-1.71
2018-01-11T12:04:34.332Z,-1.81
2018-01-11T12:05:44.315Z,-1.82
2018-01-11T12:06:54.037Z,-1.75
2018-01-11T12:08:03.493Z,-1.74
2018-01-11T12:09:12.682Z,-1.69
2018-01-11T12:10:22.703Z,-1.61
2018-01-11T12:11:32.422Z,-1.68
2018-01-11T12:12:42.148Z,-1.61
2018-01-11T12:13:52.148Z,-1.61
2018-01-11T12:15:01.864Z,-1.75
2018-01-11T12:16:11.866Z,-1.89
2018-01-11T12:17:21.585Z,-1.81
2018-01-11T12:18:31.665Z,-1.93
2018-01-11T12:19:41.655Z,-1.87
2018-01-11T12:20:51.644Z,-1.82
2018-01-11T12:22:01.360Z,-1.76
2018-01-11T12:23:10.555Z,-1.72
2018-01-11T12:24:20.275Z,-1.78
2018-01-11T12:25:29.732Z,-1.72
2018-01-11T12:26:39.720Z,-1.75
2018-01-11T12:27:49.703Z,-1.79
2018-01-11T12:28:59.691Z,-1.79
2018-01-11T12:30:09.422Z,-1.97
2018-01-11T12:31:19.138Z,-2.02
2018-01-11T12:32:28.856Z,-2.05
2018-01-11T12:33:38.309Z,-2.13
2018-01-11T12:34:48.319Z,-2.11
2018-01-11T12:35:58.310Z,-2.23
2018-01-11T12:37:08.033Z,-2.28
2018-01-11T12:38:18.017Z,-2.28
2018-01-11T12:39:27.471Z,-2.29
2018-01-11T12:40:36.927Z,-2.33
2018-01-11T12:41:46.646Z,-2.25
2018-01-11T12:42:56.380Z,-2.22
2018-01-11T12:44:06.387Z,-2.18
2018-01-11T12:45:16.128Z,-2.25
2018-01-11T12:46:26.123Z,-2.14
2018-01-11T12:47:38.395Z,-2.17
2018-01-11T12:48:47.848Z,-2.23
2018-01-11T12:49:57.572Z,-2.17
2018-01-11T12:51:07.557Z,-2.32
2018-01-11T12:52:17.010Z,-2.26
2018-01-11T12:53:26.996Z,-2.32
2018-01-11T12:54:36.985Z,-2.39
2018-01-11T12:55:46.973Z,-2.33
2018-01-11T12:56:56.955Z,-2.36
2018-01-11T12:58:06.996Z,-2.28
2018-01-11T12:59:16.772Z,-2.36
2018-01-11T13:00:26.758Z,-2.33
2018-01-11T13:01:36.212Z,-2.42
2018-01-11T13:02:45.666Z,-2.4
2018-01-11T13:03:55.650Z,-2.51
2018-01-11T13:05:05.367Z,-2.57
2018-01-11T13:06:15.096Z,-2.44
2018-01-11T13:07:24.289Z,-2.51
2018-01-11T13:08:34.278Z,-2.51
2018-01-11T13:09:44.264Z,-2.54
2018-01-11T13:10:53.987Z,-2.51
2018-01-11T13:12:03.990Z,-2.48
2018-01-11T13:13:13.983Z,-2.51
2018-01-11T13:14:23.991Z,-2.61
2018-01-11T13:15:33.987Z,-2.55
2018-01-11T13:16:44.145Z,-2.65
2018-01-11T13:17:54.172Z,-2.55
2018-01-11T13:19:04.160Z,-2.62
2018-01-11T13:20:14.142Z,-2.68
2018-01-11T13:21:24.149Z,-2.68
2018-01-11T13:22:33.876Z,-2.62
2018-01-11T13:23:43.858Z,-2.63
2018-01-11T13:24:53.046Z,-2.69
2018-01-11T13:26:02.768Z,-2.76
2018-01-11T13:27:12.762Z,-2.76
2018-01-11T13:28:22.797Z,-2.78
2018-01-11T13:29:31.987Z,-2.78
2018-01-11T13:30:41.704Z,-2.8
2018-01-11T13:31:51.425Z,-2.72
2018-01-11T13:33:01.413Z,-2.68
2018-01-11T13:34:11.497Z,-2.72
2018-01-11T13:35:21.485Z,-2.68
2018-01-11T13:36:31.535Z,-2.72
2018-01-11T13:37:41.537Z,-2.63
2018-01-11T13:38:51.518Z,-2.65
2018-01-11T13:40:01.556Z,-2.69
2018-01-11T13:41:11.009Z,-2.68
2018-01-11T13:42:20.991Z,-2.69
2018-01-11T13:43:30.713Z,-2.73
2018-01-11T13:44:40.696Z,-2.73
2018-01-11T13:45:50.684Z,-2.7
2018-01-11T13:47:00.674Z,-2.66
2018-01-11T13:48:10.661Z,-2.62
2018-01-11T13:49:19.857Z,-2.68
2018-01-11T13:50:29.575Z,-2.66
2018-01-11T13:51:39.033Z,-2.61
2018-01-11T13:52:49.046Z,-2.58
2018-01-11T13:53:59.032Z,-2.68
2018-01-11T13:55:08.753Z,-2.65
2018-01-11T13:56:18.741Z,-2.62
2018-01-11T13:57:28.733Z,-2.58
2018-01-11T13:58:38.450Z,-2.51
2018-01-11T13:59:48.436Z,-2.45
2018-01-11T14:00:58.427Z,-2.47
2018-01-11T14:02:08.420Z,-2.51
2018-01-11T14:03:18.416Z,-2.39
2018-01-11T14:04:28.142Z,-2.4
2018-01-11T14:05:37.596Z,-2.44
2018-01-11T14:06:47.315Z,-2.37
2018-01-11T14:07:57.306Z,-2.36
2018-01-11T14:09:07.293Z,-2.33
2018-01-11T14:10:16.751Z,-2.32
2018-01-11T14:11:26.743Z,-2.28
2018-01-11T14:12:35.934Z,-2.28
2018-01-11T14:13:45.123Z,-2.2
2018-01-11T14:14:54.681Z,-2.22
2018-01-11T14:16:04.139Z,-2.2
2018-01-11T14:17:13.604Z,-2.1
2018-01-11T14:18:23.071Z,-2.15
2018-01-11T14:19:32.792Z,-2.1
2018-01-11T14:20:41.715Z,-2.04
2018-01-11T14:21:50.903Z,-1.99
2018-01-11T14:23:00.371Z,-2.02
2018-01-11T14:24:09.836Z,-1.9
2018-01-11T14:25:19.293Z,-1.97
2018-01-11T14:26:29.012Z,-1.99
2018-01-11T14:27:38.214Z,-1.9
2018-01-11T14:28:48.049Z,-1.89
2018-01-11T14:29:57.516Z,-1.9
2018-01-11T14:31:07.506Z,-1.97
2018-01-11T14:32:16.958Z,-1.89
2018-01-11T14:33:26.948Z,-1.92
2018-01-11T14:34:36.399Z,-1.87
2018-01-11T14:35:46.450Z,-1.94
2018-01-11T14:36:56.438Z,-1.99
2018-01-11T14:38:06.421Z,-1.94
2018-01-11T14:39:16.137Z,-2
2018-01-11T14:40:26.123Z,-1.97
2018-01-11T14:41:36.106Z,-2.02
2018-01-11T14:42:46.093Z,-2
2018-01-11T14:43:55.554Z,-2
2018-01-11T14:45:05.276Z,-2.04
2018-01-11T14:46:15.262Z,-2.05
2018-01-11T14:47:24.980Z,-2.05
2018-01-11T14:48:34.763Z,-2.11
2018-01-11T14:49:44.801Z,-2.18
2018-01-11T14:50:54.789Z,-2.22
2018-01-11T14:52:04.825Z,-2.2
2018-01-11T14:53:14.867Z,-2.23
2018-01-11T14:54:24.586Z,-2.26
2018-01-11T14:55:34.053Z,-2.23
2018-01-11T14:56:43.771Z,-2.32
2018-01-11T14:57:53.758Z,-2.32
2018-01-11T14:59:03.811Z,-2.33
2018-01-11T15:00:13.807Z,-2.47
2018-01-11T15:01:23.844Z,-2.47
2018-01-11T15:02:33.559Z,-2.5
2018-01-11T15:03:43.544Z,-2.51
2018-01-11T15:04:53.528Z,-2.44
2018-01-11T15:06:03.509Z,-2.48
2018-01-11T15:07:12.962Z,-2.5